createdAt,value
2018-12-30T00:01:47.819Z,12.82
2018-12-30T00:04:23.289Z,12.40
2018-12-30T00:07:00.758Z,13.05
2018-12-30T00:09:34.402Z,13.25
2018-12-30T00:12:08.167Z,13.20
2018-12-30T00:14:44.161Z,14.58
2018-12-30T00:17:21.054Z,13.13
2018-12-30T00:19:56.394Z,13.05
2018-12-30T00:22:29.264Z,12.63
2018-12-30T00:25:01.954Z,11.80
2018-12-30T00:27:38.189Z,11.05
2018-12-30T00:30:13.707Z,11.35
2018-12-30T00:32:47.516Z,10.70
2018-12-30T00:35:22.575Z,10.48
2018-12-30T00:37:57.614Z,11.33
2018-12-30T00:40:31.835Z,10.45
2018-12-30T00:43:05.637Z,9.25
2018-12-30T00:45:44.015Z,8.60
2018-12-30T00:48:20.103Z,9.00
2018-12-30T00:50:54.894Z,10.18
2018-12-30T00:53:29.442Z,9.28
2018-12-30T00:56:03.146Z,9.80
2018-12-30T00:58:37.818Z,10.38
2018-12-30T01:01:11.728Z,10.50
2018-12-30T01:03:47.065Z,10.40
2018-12-30T01:06:21.230Z,10.40
2018-12-30T01:08:55.076Z,10.10
2018-12-30T01:11:29.601Z,10.75
2018-12-30T01:14:02.673Z,9.83
2018-12-30T01:16:38.900Z,10.72
2018-12-30T01:19:16.500Z,13.00
2018-12-30T01:21:51.006Z,12.58
2018-12-30T01:24:26.306Z,13.75
2018-12-30T01:27:00.883Z,13.13
2018-12-30T01:29:38.585Z,13.75
2018-12-30T01:32:13.603Z,13.22
2018-12-30T01:34:46.805Z,14.23
2018-12-30T01:37:21.286Z,13.22
2018-12-30T01:39:55.274Z,12.05
2018-12-30T01:42:29.626Z,11.35
2018-12-30T01:45:02.562Z,11.22
2018-12-30T01:47:35.420Z,8.98
2018-12-30T01:50:08.838Z,8.95
2018-12-30T01:52:41.521Z,8.35
2018-12-30T01:55:14.556Z,8.63
2018-12-30T01:57:52.299Z,9.65
2018-12-30T02:00:29.051Z,10.20
2018-12-30T02:03:03.470Z,11.78
2018-12-30T02:05:37.341Z,12.00
2018-12-30T02:08:10.017Z,13.45
2018-12-30T02:10:43.073Z,13.50
2018-12-30T02:13:16.832Z,13.00
2018-12-30T02:15:51.049Z,13.75
2018-12-30T02:18:24.594Z,14.70
2018-12-30T02:20:58.146Z,14.38
2018-12-30T02:23:31.744Z,15.58
2018-12-30T02:26:04.878Z,14.38
2018-12-30T02:28:42.305Z,13.18
2018-12-30T02:31:15.498Z,15.00
2018-12-30T02:33:49.263Z,15.78
2018-12-30T02:36:22.617Z,14.53
2018-12-30T02:38:57.036Z,16.97
2018-12-30T02:41:29.958Z,13.43
2018-12-30T02:44:04.334Z,15.65
2018-12-30T02:46:39.427Z,17.35
2018-12-30T02:49:17.598Z,13.43
2018-12-30T02:51:51.930Z,15.55
2018-12-30T02:54:24.062Z,14.13
2018-12-30T02:56:57.916Z,15.15
2018-12-30T02:59:30.607Z,14.05
2018-12-30T03:02:06.672Z,13.95
2018-12-30T03:04:42.580Z,13.90
2018-12-30T03:07:18.753Z,15.48
2018-12-30T03:09:53.320Z,14.07
2018-12-30T03:12:30.122Z,15.03
2018-12-30T03:15:04.534Z,14.45
2018-12-30T03:17:42.987Z,13.88
2018-12-30T03:20:16.013Z,14.75
2018-12-30T03:22:48.936Z,15.35
2018-12-30T03:25:22.343Z,13.78
2018-12-30T03:28:01.045Z,13.10
2018-12-30T03:30:38.537Z,13.03
2018-12-30T03:33:11.252Z,13.35
2018-12-30T03:35:46.669Z,14.13
2018-12-30T03:38:20.854Z,12.90
2018-12-30T03:40:55.293Z,15.58
2018-12-30T03:43:29.226Z,13.68
2018-12-30T03:46:05.207Z,15.35
2018-12-30T03:48:39.271Z,14.15
2018-12-30T03:51:14.238Z,14.03
2018-12-30T03:53:46.752Z,15.00
2018-12-30T03:56:21.729Z,15.25
2018-12-30T03:58:58.372Z,15.18
2018-12-30T04:01:34.321Z,14.87
2018-12-30T04:04:08.918Z,15.40
2018-12-30T04:06:42.000Z,14.70
2018-12-30T04:09:15.477Z,15.75
2018-12-30T04:11:48.332Z,14.50
2018-12-30T04:14:21.919Z,14.95
2018-12-30T04:16:57.907Z,14.38
2018-12-30T04:19:34.478Z,14.40
2018-12-30T04:22:07.032Z,16.02
2018-12-30T04:24:40.536Z,15.60
2018-12-30T04:27:14.236Z,14.65
2018-12-30T04:29:47.327Z,16.70
2018-12-30T04:32:21.141Z,16.23
2018-12-30T04:34:55.002Z,17.00
2018-12-30T04:37:29.167Z,17.12
2018-12-30T04:40:03.090Z,16.10
2018-12-30T04:42:37.150Z,17.52
2018-12-30T04:45:10.788Z,16.85
2018-12-30T04:47:45.377Z,16.77
2018-12-30T04:50:19.578Z,17.95
2018-12-30T04:52:52.592Z,16.80
2018-12-30T04:55:25.506Z,17.48
2018-12-30T04:57:58.109Z,17.90
2018-12-30T05:00:32.580Z,17.25
2018-12-30T05:03:06.950Z,16.05
2018-12-30T05:05:41.438Z,16.70
2018-12-30T05:08:15.064Z,18.67
2018-12-30T05:10:48.513Z,17.45
2018-12-30T05:13:22.375Z,16.90
2018-12-30T05:15:55.834Z,16.90
2018-12-30T05:18:29.219Z,16.20
2018-12-30T05:21:02.745Z,16.60
2018-12-30T05:23:36.007Z,15.50
2018-12-30T05:26:09.787Z,15.78
2018-12-30T05:28:44.211Z,14.65
2018-12-30T05:31:18.082Z,14.73
2018-12-30T05:33:54.373Z,13.50
2018-12-30T05:36:28.941Z,14.87
2018-12-30T05:39:05.395Z,14.98
2018-12-30T05:41:39.157Z,14.38
2018-12-30T05:44:11.973Z,14.63
2018-12-30T05:46:45.193Z,14.95
2018-12-30T05:49:18.648Z,15.45
2018-12-30T05:51:52.661Z,15.08
2018-12-30T05:54:27.540Z,14.68
2018-12-30T05:57:01.968Z,15.75
2018-12-30T05:59:35.433Z,14.13
2018-12-30T06:02:07.960Z,14.58
2018-12-30T06:04:41.696Z,15.43
2018-12-30T06:07:15.513Z,14.83
2018-12-30T06:09:49.742Z,15.93
2018-12-30T06:12:22.662Z,16.67
2018-12-30T06:14:55.904Z,16.77
2018-12-30T06:17:29.593Z,16.57
2018-12-30T06:20:03.008Z,16.48
2018-12-30T06:22:36.198Z,16.50
2018-12-30T06:25:08.398Z,17.82
2018-12-30T06:27:40.633Z,18.17
2018-12-30T06:30:14.727Z,17.17
2018-12-30T06:32:50.217Z,17.52
2018-12-30T06:35:24.404Z,15.90
2018-12-30T06:37:58.525Z,16.32
2018-12-30T06:40:32.772Z,18.05
2018-12-30T06:43:07.112Z,17.62
2018-12-30T06:45:40.671Z,16.82
2018-12-30T06:48:13.428Z,16.67
2018-12-30T06:50:47.006Z,17.07
2018-12-30T06:53:19.877Z,17.37
2018-12-30T06:55:52.376Z,16.57
2018-12-30T06:58:25.473Z,16.57
2018-12-30T07:00:58.909Z,16.20
2018-12-30T07:03:33.215Z,16.57
2018-12-30T07:06:07.649Z,17.92
2018-12-30T07:08:42.403Z,15.45
2018-12-30T07:11:16.815Z,16.15
2018-12-30T07:13:50.780Z,17.27
2018-12-30T07:16:24.411Z,17.05
2018-12-30T07:18:58.379Z,19.67
2018-12-30T07:21:32.189Z,18.40
2018-12-30T07:24:04.608Z,18.87
2018-12-30T07:26:37.524Z,14.68
2018-12-30T07:29:11.191Z,15.50
2018-12-30T07:31:45.125Z,17.82
2018-12-30T07:34:18.892Z,17.50
2018-12-30T07:36:52.867Z,16.17
2018-12-30T07:39:27.004Z,14.73
2018-12-30T07:42:06.207Z,16.30
2018-12-30T07:44:45.122Z,17.50
2018-12-30T07:47:19.748Z,17.05
2018-12-30T07:49:53.140Z,16.50
2018-12-30T07:52:26.137Z,17.35
2018-12-30T07:55:00.221Z,15.95
2018-12-30T07:57:33.361Z,14.70
2018-12-30T08:00:08.270Z,17.52
2018-12-30T08:02:43.208Z,16.15
2018-12-30T08:05:16.908Z,16.20
2018-12-30T08:07:50.610Z,16.93
2018-12-30T08:10:24.589Z,16.02
2018-12-30T08:12:59.312Z,17.00
2018-12-30T08:15:33.932Z,18.20
2018-12-30T08:18:07.415Z,17.23
2018-12-30T08:20:40.673Z,16.00
2018-12-30T08:23:13.038Z,14.95
2018-12-30T08:25:45.307Z,15.18
2018-12-30T08:28:25.060Z,16.35
2018-12-30T08:30:55.387Z,16.27
2018-12-30T08:33:29.969Z,16.70
2018-12-30T08:36:03.680Z,17.17
2018-12-30T08:38:37.535Z,16.93
2018-12-30T08:41:11.683Z,14.58
2018-12-30T08:43:46.090Z,16.57
2018-12-30T08:46:21.221Z,17.00
2018-12-30T08:48:54.907Z,16.70
2018-12-30T08:51:28.577Z,15.05
2018-12-30T08:54:01.549Z,16.15
2018-12-30T08:56:35.386Z,15.03
2018-12-30T08:59:09.698Z,15.32
2018-12-30T09:01:43.709Z,15.53
2018-12-30T09:04:16.585Z,16.85
2018-12-30T09:06:49.512Z,13.83
2018-12-30T09:09:22.404Z,16.62
2018-12-30T09:11:55.222Z,15.80
2018-12-30T09:14:27.950Z,16.15
2018-12-30T09:17:02.410Z,15.55
2018-12-30T09:19:35.660Z,15.60
2018-12-30T09:22:08.907Z,15.30
2018-12-30T09:24:41.807Z,15.75
2018-12-30T09:27:15.262Z,14.98
2018-12-30T09:29:49.238Z,16.00
2018-12-30T09:32:23.716Z,14.90
2018-12-30T09:34:57.891Z,15.48
2018-12-30T09:37:30.810Z,15.03
2018-12-30T09:40:03.792Z,15.83
2018-12-30T09:42:37.892Z,18.07
2018-12-30T09:45:10.318Z,14.63
2018-12-30T09:47:44.571Z,16.10
2018-12-30T09:50:19.310Z,16.25
2018-12-30T09:52:55.762Z,15.53
2018-12-30T09:55:29.052Z,17.07
2018-12-30T09:58:09.156Z,16.82
2018-12-30T10:00:42.618Z,14.68
2018-12-30T10:03:16.390Z,14.65
2018-12-30T10:05:49.166Z,16.25
2018-12-30T10:08:23.005Z,14.07
2018-12-30T10:10:56.160Z,14.75
2018-12-30T10:13:30.114Z,13.83
2018-12-30T10:16:03.205Z,13.50
2018-12-30T10:18:37.817Z,14.80
2018-12-30T10:21:11.603Z,13.28
2018-12-30T10:23:44.501Z,13.48
2018-12-30T10:26:17.166Z,12.63
2018-12-30T10:28:50.443Z,16.60
2018-12-30T10:31:24.049Z,13.28
2018-12-30T10:33:56.369Z,13.58
2018-12-30T10:36:29.755Z,12.05
2018-12-30T10:39:05.948Z,11.33
2018-12-30T10:41:40.232Z,12.45
2018-12-30T10:44:12.717Z,12.03
2018-12-30T10:46:45.822Z,12.07
2018-12-30T10:49:18.043Z,12.05
2018-12-30T10:51:50.213Z,13.35
2018-12-30T10:54:23.381Z,12.45
2018-12-30T10:56:55.321Z,13.25
2018-12-30T10:59:29.122Z,11.83
2018-12-30T11:02:02.770Z,12.03
2018-12-30T11:04:37.296Z,11.55
2018-12-30T11:07:11.305Z,11.60
2018-12-30T11:09:45.314Z,12.40
2018-12-30T11:12:18.648Z,10.82
2018-12-30T11:14:53.122Z,11.63
2018-12-30T11:17:25.675Z,11.38
2018-12-30T11:19:57.686Z,12.28
2018-12-30T11:22:30.692Z,11.10
2018-12-30T11:25:03.597Z,11.90
2018-12-30T11:27:37.232Z,11.55
2018-12-30T11:30:11.083Z,10.80
2018-12-30T11:32:43.569Z,11.05
2018-12-30T11:35:17.802Z,11.68
2018-12-30T11:37:51.134Z,11.18
2018-12-30T11:40:24.649Z,11.38
2018-12-30T11:42:58.230Z,10.58
2018-12-30T11:45:33.921Z,10.98
2018-12-30T11:48:07.693Z,11.18
2018-12-30T11:50:41.692Z,11.80
2018-12-30T11:53:15.227Z,11.48
2018-12-30T11:55:50.393Z,10.55
2018-12-30T11:58:24.136Z,10.55
2018-12-30T12:00:57.312Z,10.78
2018-12-30T12:03:31.264Z,10.30
2018-12-30T12:06:03.655Z,10.98
2018-12-30T12:08:36.509Z,10.93
2018-12-30T12:11:10.197Z,8.88
2018-12-30T12:13:43.762Z,11.28
2018-12-30T12:16:16.430Z,10.95
2018-12-30T12:18:49.236Z,12.80
2018-12-30T12:21:21.832Z,10.85
2018-12-30T12:23:53.749Z,11.88
2018-12-30T12:26:25.605Z,11.05
2018-12-30T12:28:59.290Z,11.55
2018-12-30T12:31:34.234Z,12.25
2018-12-30T12:34:07.289Z,11.05
2018-12-30T12:36:42.300Z,11.63
2018-12-30T12:39:20.727Z,10.90
2018-12-30T12:41:56.684Z,12.23
2018-12-30T12:44:32.047Z,11.83
2018-12-30T12:47:10.547Z,10.80
2018-12-30T12:49:46.936Z,11.90
2018-12-30T12:52:20.180Z,12.53
2018-12-30T12:54:52.688Z,11.20
2018-12-30T12:57:25.338Z,13.60
2018-12-30T12:59:58.633Z,12.65
2018-12-30T13:02:31.466Z,11.85
2018-12-30T13:05:05.439Z,11.60
2018-12-30T13:07:39.085Z,11.57
2018-12-30T13:10:14.530Z,13.20
2018-12-30T13:12:47.457Z,12.13
2018-12-30T13:15:21.060Z,11.80
2018-12-30T13:17:53.349Z,11.70
2018-12-30T13:20:26.835Z,11.43
2018-12-30T13:23:02.274Z,12.40
2018-12-30T13:25:36.494Z,12.03
2018-12-30T13:28:11.925Z,12.25
2018-12-30T13:30:46.810Z,12.58
2018-12-30T13:33:18.865Z,11.75
2018-12-30T13:35:51.088Z,13.03
2018-12-30T13:38:28.242Z,11.30
2018-12-30T13:40:57.530Z,11.80
2018-12-30T13:43:31.389Z,13.28
2018-12-30T13:46:04.121Z,11.00
2018-12-30T13:48:37.020Z,12.10
2018-12-30T13:51:10.835Z,13.05
2018-12-30T13:53:43.489Z,13.05
2018-12-30T13:56:16.841Z,11.83
2018-12-30T13:58:50.422Z,12.68
2018-12-30T14:01:24.022Z,12.28
2018-12-30T14:03:58.483Z,11.25
2018-12-30T14:06:32.903Z,12.43
2018-12-30T14:09:07.938Z,12.70
2018-12-30T14:11:42.533Z,12.00
2018-12-30T14:14:16.823Z,11.78
2018-12-30T14:16:50.298Z,10.45
2018-12-30T14:19:23.455Z,11.60
2018-12-30T14:21:57.145Z,10.60
2018-12-30T14:24:29.827Z,13.50
2018-12-30T14:27:03.069Z,11.18
2018-12-30T14:29:36.095Z,13.35
2018-12-30T14:32:10.348Z,13.35
2018-12-30T14:34:44.936Z,11.33
2018-12-30T14:37:19.589Z,11.83
2018-12-30T14:39:53.321Z,12.07
2018-12-30T14:42:28.459Z,10.38
2018-12-30T14:45:02.096Z,9.88
2018-12-30T14:47:36.713Z,11.60
2018-12-30T14:50:13.663Z,10.85
2018-12-30T14:52:47.185Z,12.50
2018-12-30T14:55:21.151Z,11.10
2018-12-30T14:57:54.915Z,12.88
2018-12-30T15:00:29.633Z,10.48
2018-12-30T15:03:02.113Z,10.50
2018-12-30T15:05:34.701Z,11.10
2018-12-30T15:08:07.279Z,12.43
2018-12-30T15:10:43.903Z,12.47
2018-12-30T15:13:17.564Z,11.80
2018-12-30T15:15:51.479Z,11.70
2018-12-30T15:18:24.985Z,12.05
2018-12-30T15:20:58.282Z,11.40
2018-12-30T15:23:32.161Z,10.68
2018-12-30T15:26:05.620Z,10.35
2018-12-30T15:28:38.296Z,14.68
2018-12-30T15:31:11.065Z,12.65
2018-12-30T15:33:45.639Z,11.45
2018-12-30T15:36:18.735Z,10.88
2018-12-30T15:38:53.658Z,10.85
2018-12-30T15:41:26.985Z,10.28
2018-12-30T15:44:01.536Z,10.90
2018-12-30T15:46:34.087Z,11.10
2018-12-30T15:49:06.153Z,11.22
2018-12-30T15:51:38.454Z,11.53
2018-12-30T15:54:11.690Z,10.90
2018-12-30T15:56:45.038Z,11.45
2018-12-30T15:59:26.826Z,10.40
2018-12-30T16:02:01.111Z,11.15
2018-12-30T16:04:35.392Z,10.98
2018-12-30T16:07:09.524Z,10.28
2018-12-30T16:09:43.399Z,10.53
2018-12-30T16:12:16.968Z,11.18
2018-12-30T16:14:53.378Z,10.75
2018-12-30T16:17:27.101Z,11.73
2018-12-30T16:20:00.291Z,11.80
2018-12-30T16:22:34.114Z,12.98
2018-12-30T16:25:09.198Z,12.65
2018-12-30T16:27:42.612Z,10.85
2018-12-30T16:30:15.800Z,11.45
2018-12-30T16:32:49.516Z,10.85
2018-12-30T16:35:22.794Z,10.43
2018-12-30T16:37:55.017Z,10.50
2018-12-30T16:40:30.291Z,11.50
2018-12-30T16:43:04.236Z,10.40
2018-12-30T16:45:38.442Z,12.37
2018-12-30T16:48:12.605Z,9.60
2018-12-30T16:50:47.735Z,10.03
2018-12-30T16:53:21.509Z,11.18
2018-12-30T16:55:54.599Z,10.03
2018-12-30T16:58:28.146Z,10.70
2018-12-30T17:01:03.119Z,9.88
2018-12-30T17:03:36.608Z,10.00
2018-12-30T17:06:11.921Z,11.00
2018-12-30T17:08:44.891Z,10.13
2018-12-30T17:11:18.353Z,10.10
2018-12-30T17:13:52.762Z,10.20
2018-12-30T17:16:26.259Z,11.12
2018-12-30T17:19:00.207Z,10.10
2018-12-30T17:21:34.221Z,10.65
2018-12-30T17:24:07.157Z,10.43
2018-12-30T17:26:41.314Z,9.80
2018-12-30T17:29:14.825Z,10.90
2018-12-30T17:31:48.395Z,10.78
2018-12-30T17:34:22.026Z,11.88
2018-12-30T17:37:02.152Z,11.28
2018-12-30T17:39:37.280Z,11.05
2018-12-30T17:42:11.649Z,11.48
2018-12-30T17:44:45.325Z,12.63
2018-12-30T17:47:18.166Z,11.35
2018-12-30T17:49:50.323Z,10.95
2018-12-30T17:52:23.680Z,12.18
2018-12-30T17:54:56.531Z,21.00
2018-12-30T17:57:29.347Z,12.70
2018-12-30T18:00:03.756Z,12.60
2018-12-30T18:02:37.881Z,16.52
2018-12-30T18:05:11.991Z,13.05
2018-12-30T18:07:44.205Z,13.05
2018-12-30T18:10:17.702Z,13.18
2018-12-30T18:12:52.937Z,12.65
2018-12-30T18:15:27.909Z,13.45
2018-12-30T18:18:01.437Z,11.50
2018-12-30T18:20:36.080Z,13.70
2018-12-30T18:23:10.749Z,14.68
2018-12-30T18:25:44.644Z,13.98
2018-12-30T18:28:18.810Z,12.98
2018-12-30T18:30:51.623Z,12.27
2018-12-30T18:33:24.104Z,13.30
2018-12-30T18:35:59.690Z,14.30
2018-12-30T18:38:32.955Z,13.95
2018-12-30T18:41:05.661Z,12.95
2018-12-30T18:43:38.230Z,15.38
2018-12-30T18:46:11.505Z,14.33
2018-12-30T18:48:53.769Z,14.98
2018-12-30T18:51:33.173Z,15.70
2018-12-30T18:54:05.421Z,16.20
2018-12-30T18:56:38.994Z,15.90
2018-12-30T18:59:14.188Z,18.55
2018-12-30T19:01:49.334Z,15.05
2018-12-30T19:04:21.966Z,15.13
2018-12-30T19:06:54.222Z,15.50
2018-12-30T19:09:26.803Z,16.67
2018-12-30T19:11:59.475Z,17.85
2018-12-30T19:14:34.092Z,19.25
2018-12-30T19:17:07.768Z,19.90
2018-12-30T19:19:42.994Z,22.37
2018-12-30T19:22:17.330Z,17.17
2018-12-30T19:24:51.556Z,17.45
2018-12-30T19:27:26.574Z,19.55
2018-12-30T19:30:01.611Z,16.05
2018-12-30T19:32:34.166Z,19.30
2018-12-30T19:35:14.466Z,17.10
2018-12-30T19:37:53.068Z,15.88
2018-12-30T19:40:28.673Z,17.67
2018-12-30T19:43:00.857Z,17.45
2018-12-30T19:45:33.190Z,18.70
2018-12-30T19:48:06.393Z,18.40
2018-12-30T19:50:40.805Z,18.70
2018-12-30T19:53:15.289Z,19.65
2018-12-30T19:55:49.493Z,19.12
2018-12-30T19:58:25.213Z,16.55
2018-12-30T20:00:59.165Z,18.05
2018-12-30T20:03:33.038Z,15.88
2018-12-30T20:06:05.854Z,17.40
2018-12-30T20:08:38.026Z,16.15
2018-12-30T20:11:11.782Z,15.58
2018-12-30T20:13:46.262Z,13.98
2018-12-30T20:16:20.330Z,15.98
2018-12-30T20:18:54.280Z,15.95
2018-12-30T20:21:29.733Z,15.63
2018-12-30T20:24:05.085Z,14.70
2018-12-30T20:26:38.194Z,14.85
2018-12-30T20:29:10.473Z,15.88
2018-12-30T20:31:44.204Z,14.20
2018-12-30T20:34:19.130Z,15.70
2018-12-30T20:36:53.427Z,16.10
2018-12-30T20:39:28.260Z,17.75
2018-12-30T20:42:00.601Z,15.60
2018-12-30T20:44:32.744Z,17.17
2018-12-30T20:47:05.098Z,15.30
2018-12-30T20:49:37.242Z,13.98
2018-12-30T20:52:09.426Z,13.78
2018-12-30T20:54:42.823Z,13.30
2018-12-30T20:57:16.668Z,15.18
2018-12-30T20:59:50.128Z,13.95
2018-12-30T21:02:24.965Z,15.40
2018-12-30T21:04:59.335Z,15.40
2018-12-30T21:07:37.555Z,16.17
2018-12-30T21:10:12.512Z,15.32
2018-12-30T21:12:47.509Z,15.70
2018-12-30T21:15:22.372Z,14.73
2018-12-30T21:18:00.065Z,13.15
2018-12-30T21:20:35.659Z,17.00
2018-12-30T21:23:12.554Z,12.95
2018-12-30T21:25:47.250Z,12.82
2018-12-30T21:28:29.461Z,12.15
2018-12-30T21:31:02.532Z,11.68
2018-12-30T21:33:34.695Z,12.35
2018-12-30T21:36:08.721Z,14.90
2018-12-30T21:38:43.468Z,14.30
2018-12-30T21:41:18.104Z,13.10
2018-12-30T21:43:53.056Z,15.88
2018-12-30T21:46:26.695Z,15.10
2018-12-30T21:49:00.253Z,14.13
2018-12-30T21:51:34.247Z,11.83
2018-12-30T21:54:08.178Z,11.93
2018-12-30T21:56:42.768Z,10.05
2018-12-30T21:59:17.500Z,13.18
2018-12-30T22:01:51.853Z,11.80
2018-12-30T22:04:25.972Z,13.85
2018-12-30T22:06:59.979Z,12.13
2018-12-30T22:09:34.424Z,11.40
2018-12-30T22:12:08.498Z,11.33
2018-12-30T22:14:42.270Z,12.20
2018-12-30T22:17:14.902Z,11.55
2018-12-30T22:19:47.788Z,12.60
2018-12-30T22:22:19.871Z,12.37
2018-12-30T22:24:51.802Z,11.63
2018-12-30T22:27:24.251Z,12.00
2018-12-30T22:29:56.787Z,12.00
2018-12-30T22:32:30.546Z,11.20
2018-12-30T22:35:02.482Z,11.05
2018-12-30T22:37:34.701Z,13.28
2018-12-30T22:40:08.120Z,15.85
2018-12-30T22:42:40.740Z,13.55
2018-12-30T22:45:13.951Z,13.18
2018-12-30T22:47:46.181Z,11.08
2018-12-30T22:50:19.667Z,10.18
2018-12-30T22:52:52.670Z,9.98
2018-12-30T22:55:25.791Z,10.35
2018-12-30T22:57:58.151Z,10.70
2018-12-30T23:00:48.256Z,11.25
2018-12-30T23:03:23.935Z,11.50
2018-12-30T23:05:58.319Z,10.25
2018-12-30T23:08:30.855Z,10.08
2018-12-30T23:11:07.482Z,10.08
2018-12-30T23:13:40.748Z,10.80
2018-12-30T23:16:13.699Z,10.05
2018-12-30T23:18:48.361Z,11.35
2018-12-30T23:21:24.424Z,10.88
2018-12-30T23:23:58.889Z,11.15
2018-12-30T23:26:31.726Z,12.28
2018-12-30T23:29:04.795Z,15.18
2018-12-30T23:31:37.192Z,14.70
2018-12-30T23:34:09.546Z,14.00
2018-12-30T23:36:43.689Z,13.50
2018-12-30T23:39:15.735Z,12.85
2018-12-30T23:41:48.802Z,13.15
2018-12-30T23:44:21.475Z,14.75
2018-12-30T23:46:54.026Z,15.85
2018-12-30T23:49:31.673Z,14.80
2018-12-30T23:52:04.985Z,15.18
2018-12-30T23:54:37.286Z,15.08
2018-12-30T23:57:09.141Z,14.28
2018-12-30T23:59:41.281Z,14.15
